sensor_id;sensor_type;location;lat;lon;timestamp;temperature;humidity
431;DHT22;202;48.764;9.172;2022-07-22T00:00:46;23.20;52.40
431;DHT22;202;48.764;9.172;2022-07-22T00:03:14;23.20;53.10
431;DHT22;202;48.764;9.172;2022-07-22T00:05:40;23.30;51.30
431;DHT22;202;48.764;9.172;2022-07-22T00:08:09;23.30;50.40
431;DHT22;202;48.764;9.172;2022-07-22T00:10:36;23.20;51.70
431;DHT22;202;48.764;9.172;2022-07-22T00:13:03;23.00;51.80
431;DHT22;202;48.764;9.172;2022-07-22T00:15:30;22.90;52.50
431;DHT22;202;48.764;9.172;2022-07-22T00:17:57;22.90;52.10
431;DHT22;202;48.764;9.172;2022-07-22T00:20:24;22.90;52.90
431;DHT22;202;48.764;9.172;2022-07-22T00:22:52;23.00;53.20
431;DHT22;202;48.764;9.172;2022-07-22T00:25:20;23.20;52.30
431;DHT22;202;48.764;9.172;2022-07-22T00:27:48;23.10;53.30
431;DHT22;202;48.764;9.172;2022-07-22T00:30:15;22.90;52.50
431;DHT22;202;48.764;9.172;2022-07-22T00:32:42;22.80;52.60
431;DHT22;202;48.764;9.172;2022-07-22T00:35:09;22.60;53.70
431;DHT22;202;48.764;9.172;2022-07-22T00:37:36;22.60;53.90
431;DHT22;202;48.764;9.172;2022-07-22T00:40:04;22.70;54.10
431;DHT22;202;48.764;9.172;2022-07-22T00:42:32;22.60;54.60
431;DHT22;202;48.764;9.172;2022-07-22T00:45:00;22.80;55.10
431;DHT22;202;48.764;9.172;2022-07-22T00:47:28;22.80;53.20
431;DHT22;202;48.764;9.172;2022-07-22T00:49:56;22.90;54.00
431;DHT22;202;48.764;9.172;2022-07-22T00:52:25;23.00;52.60
431;DHT22;202;48.764;9.172;2022-07-22T00:54:55;23.00;51.90
431;DHT22;202;48.764;9.172;2022-07-22T00:57:22;23.10;51.10
431;DHT22;202;48.764;9.172;2022-07-22T01:00:02;23.10;51.30
431;DHT22;202;48.764;9.172;2022-07-22T01:02:31;23.00;52.40
431;DHT22;202;48.764;9.172;2022-07-22T01:04:58;22.90;53.20
431;DHT22;202;48.764;9.172;2022-07-22T01:07:25;22.80;53.70
431;DHT22;202;48.764;9.172;2022-07-22T01:09:55;22.70;52.60
431;DHT22;202;48.764;9.172;2022-07-22T01:12:23;22.50;52.80
431;DHT22;202;48.764;9.172;2022-07-22T01:14:50;22.50;54.40
431;DHT22;202;48.764;9.172;2022-07-22T01:17:18;22.40;54.10
431;DHT22;202;48.764;9.172;2022-07-22T01:19:45;22.30;54.70
431;DHT22;202;48.764;9.172;2022-07-22T01:22:14;22.40;54.80
431;DHT22;202;48.764;9.172;2022-07-22T01:24:41;22.30;54.70
431;DHT22;202;48.764;9.172;2022-07-22T01:27:08;22.30;54.50
431;DHT22;202;48.764;9.172;2022-07-22T01:29:35;22.30;54.70
431;DHT22;202;48.764;9.172;2022-07-22T01:32:03;22.20;54.60
431;DHT22;202;48.764;9.172;2022-07-22T01:34:30;22.10;54.50
431;DHT22;202;48.764;9.172;2022-07-22T01:36:57;22.10;54.50
431;DHT22;202;48.764;9.172;2022-07-22T01:39:26;22.10;55.20
431;DHT22;202;48.764;9.172;2022-07-22T01:41:53;22.10;55.90
431;DHT22;202;48.764;9.172;2022-07-22T01:44:20;22.10;56.10
431;DHT22;202;48.764;9.172;2022-07-22T01:46:47;22.00;56.00
431;DHT22;202;48.764;9.172;2022-07-22T02:04:41;22.00;56.50
431;DHT22;202;48.764;9.172;2022-07-22T02:07:08;21.90;56.80
431;DHT22;202;48.764;9.172;2022-07-22T02:09:35;21.90;56.90
431;DHT22;202;48.764;9.172;2022-07-22T02:12:02;21.90;56.70
431;DHT22;202;48.764;9.172;2022-07-22T02:14:29;21.90;57.70
431;DHT22;202;48.764;9.172;2022-07-22T04:27:27;21.40;62.60
431;DHT22;202;48.764;9.172;2022-07-22T04:29:54;21.30;63.50
431;DHT22;202;48.764;9.172;2022-07-22T04:32:23;21.20;63.60
431;DHT22;202;48.764;9.172;2022-07-22T04:34:53;21.20;63.50
431;DHT22;202;48.764;9.172;2022-07-22T04:37:20;21.20;63.50
431;DHT22;202;48.764;9.172;2022-07-22T04:39:55;21.20;65.60
431;DHT22;202;48.764;9.172;2022-07-22T05:34:14;21.80;60.40
431;DHT22;202;48.764;9.172;2022-07-22T05:36:45;21.70;61.50
431;DHT22;202;48.764;9.172;2022-07-22T05:39:20;21.80;62.30
431;DHT22;202;48.764;9.172;2022-07-22T05:41:50;21.80;62.20
431;DHT22;202;48.764;9.172;2022-07-22T05:44:20;21.90;62.00
431;DHT22;202;48.764;9.172;2022-07-22T05:47:15;21.90;60.80
431;DHT22;202;48.764;9.172;2022-07-22T10:46:51;32.10;28.30
431;DHT22;202;48.764;9.172;2022-07-22T10:49:27;32.30;27.50
431;DHT22;202;48.764;9.172;2022-07-22T10:52:13;32.00;27.50
431;DHT22;202;48.764;9.172;2022-07-22T10:55:19;32.00;28.90
431;DHT22;202;48.764;9.172;2022-07-22T10:57:50;31.60;28.30
431;DHT22;202;48.764;9.172;2022-07-22T12:30:54;31.10;26.50
431;DHT22;202;48.764;9.172;2022-07-22T12:33:26;31.30;25.70
431;DHT22;202;48.764;9.172;2022-07-22T12:36:03;31.20;26.00
431;DHT22;202;48.764;9.172;2022-07-22T12:38:38;31.00;26.20
431;DHT22;202;48.764;9.172;2022-07-22T12:41:30;31.00;26.50
431;DHT22;202;48.764;9.172;2022-07-22T12:44:05;31.20;26.10
431;DHT22;202;48.764;9.172;2022-07-22T12:47:01;31.20;25.90
431;DHT22;202;48.764;9.172;2022-07-22T12:49:34;30.80;25.90
431;DHT22;202;48.764;9.172;2022-07-22T12:52:14;30.90;26.60
431;DHT22;202;48.764;9.172;2022-07-22T12:54:41;31.00;26.20
431;DHT22;202;48.764;9.172;2022-07-22T12:57:11;31.10;26.80
431;DHT22;202;48.764;9.172;2022-07-22T12:59:54;31.00;25.90
431;DHT22;202;48.764;9.172;2022-07-22T13:02:26;31.00;26.40
431;DHT22;202;48.764;9.172;2022-07-22T13:04:55;30.90;26.10
431;DHT22;202;48.764;9.172;2022-07-22T13:07:29;31.00;25.30
431;DHT22;202;48.764;9.172;2022-07-22T13:09:59;31.00;25.30
431;DHT22;202;48.764;9.172;2022-07-22T13:12:29;31.00;25.20
431;DHT22;202;48.764;9.172;2022-07-22T13:14:59;31.20;25.20
431;DHT22;202;48.764;9.172;2022-07-22T13:17:26;31.30;25.10
431;DHT22;202;48.764;9.172;2022-07-22T13:19:57;31.30;25.20
431;DHT22;202;48.764;9.172;2022-07-22T13:22:38;31.30;25.50
431;DHT22;202;48.764;9.172;2022-07-22T13:25:22;31.20;25.50
431;DHT22;202;48.764;9.172;2022-07-22T13:27:52;31.30;25.50
431;DHT22;202;48.764;9.172;2022-07-22T13:30:34;31.40;25.80
431;DHT22;202;48.764;9.172;2022-07-22T13:33:02;31.30;26.00
431;DHT22;202;48.764;9.172;2022-07-22T13:35:43;31.40;25.50
431;DHT22;202;48.764;9.172;2022-07-22T13:38:22;31.50;25.60
431;DHT22;202;48.764;9.172;2022-07-22T13:41:01;31.50;25.40
431;DHT22;202;48.764;9.172;2022-07-22T13:43:45;31.50;25.40
431;DHT22;202;48.764;9.172;2022-07-22T13:46:20;31.60;25.30
431;DHT22;202;48.764;9.172;2022-07-22T13:49:04;31.70;25.60
431;DHT22;202;48.764;9.172;2022-07-22T13:51:39;31.50;25.20
431;DHT22;202;48.764;9.172;2022-07-22T13:54:06;31.50;25.10
431;DHT22;202;48.764;9.172;2022-07-22T13:56:36;31.60;24.60
431;DHT22;202;48.764;9.172;2022-07-22T13:59:04;31.60;24.60
431;DHT22;202;48.764;9.172;2022-07-22T14:01:31;31.50;24.60
431;DHT22;202;48.764;9.172;2022-07-22T14:04:07;31.50;24.50
431;DHT22;202;48.764;9.172;2022-07-22T14:06:42;31.50;24.00
431;DHT22;202;48.764;9.172;2022-07-22T14:09:14;31.30;23.90
431;DHT22;202;48.764;9.172;2022-07-22T14:11:41;31.30;24.50
431;DHT22;202;48.764;9.172;2022-07-22T14:14:15;31.40;23.80
431;DHT22;202;48.764;9.172;2022-07-22T14:16:47;31.50;22.80
431;DHT22;202;48.764;9.172;2022-07-22T14:19:23;31.50;22.20
431;DHT22;202;48.764;9.172;2022-07-22T14:21:52;31.50;23.00
431;DHT22;202;48.764;9.172;2022-07-22T14:24:21;31.60;23.90
431;DHT22;202;48.764;9.172;2022-07-22T14:26:50;31.70;23.70
431;DHT22;202;48.764;9.172;2022-07-22T14:29:20;31.70;23.60
431;DHT22;202;48.764;9.172;2022-07-22T14:31:47;31.60;23.60
431;DHT22;202;48.764;9.172;2022-07-22T14:34:16;31.70;22.80
431;DHT22;202;48.764;9.172;2022-07-22T14:37:07;31.70;22.30
431;DHT22;202;48.764;9.172;2022-07-22T14:39:38;31.70;23.20
431;DHT22;202;48.764;9.172;2022-07-22T14:42:11;31.70;23.20
431;DHT22;202;48.764;9.172;2022-07-22T14:44:44;31.60;23.00
431;DHT22;202;48.764;9.172;2022-07-22T14:47:27;31.60;23.30
431;DHT22;202;48.764;9.172;2022-07-22T14:50:05;31.60;23.10
431;DHT22;202;48.764;9.172;2022-07-22T14:52:42;31.60;22.60
431;DHT22;202;48.764;9.172;2022-07-22T14:55:18;31.70;23.20
431;DHT22;202;48.764;9.172;2022-07-22T14:57:49;31.80;23.20
431;DHT22;202;48.764;9.172;2022-07-22T15:00:17;31.70;23.40
431;DHT22;202;48.764;9.172;2022-07-22T15:02:44;31.70;23.50
431;DHT22;202;48.764;9.172;2022-07-22T15:05:28;31.70;23.90
431;DHT22;202;48.764;9.172;2022-07-22T15:07:59;31.70;23.70
431;DHT22;202;48.764;9.172;2022-07-22T15:10:28;31.70;23.90
431;DHT22;202;48.764;9.172;2022-07-22T15:12:58;31.70;24.00
431;DHT22;202;48.764;9.172;2022-07-22T15:15:27;31.70;23.70
431;DHT22;202;48.764;9.172;2022-07-22T15:17:55;31.60;23.90
431;DHT22;202;48.764;9.172;2022-07-22T15:20:29;31.60;24.10
431;DHT22;202;48.764;9.172;2022-07-22T15:23:02;31.70;23.80
431;DHT22;202;48.764;9.172;2022-07-22T15:25:32;31.80;24.00
431;DHT22;202;48.764;9.172;2022-07-22T15:28:00;31.70;23.80
431;DHT22;202;48.764;9.172;2022-07-22T15:30:36;31.70;23.90
431;DHT22;202;48.764;9.172;2022-07-22T15:33:06;31.70;23.60
431;DHT22;202;48.764;9.172;2022-07-22T15:35:38;31.70;23.60
431;DHT22;202;48.764;9.172;2022-07-22T15:38:09;31.70;23.70
431;DHT22;202;48.764;9.172;2022-07-22T15:40:38;31.70;23.90
431;DHT22;202;48.764;9.172;2022-07-22T15:43:10;31.70;23.70
431;DHT22;202;48.764;9.172;2022-07-22T15:45:37;31.80;23.80
431;DHT22;202;48.764;9.172;2022-07-22T15:48:08;31.80;23.80
431;DHT22;202;48.764;9.172;2022-07-22T15:50:38;31.80;23.40
431;DHT22;202;48.764;9.172;2022-07-22T15:53:11;31.80;23.20
431;DHT22;202;48.764;9.172;2022-07-22T15:55:38;31.70;23.50
431;DHT22;202;48.764;9.172;2022-07-22T15:58:10;31.80;23.70
431;DHT22;202;48.764;9.172;2022-07-22T16:00:54;31.80;23.70
431;DHT22;202;48.764;9.172;2022-07-22T16:03:22;31.80;23.80
431;DHT22;202;48.764;9.172;2022-07-22T16:05:52;31.80;23.70
431;DHT22;202;48.764;9.172;2022-07-22T16:08:30;31.80;23.50
431;DHT22;202;48.764;9.172;2022-07-22T16:10:58;31.90;23.90
431;DHT22;202;48.764;9.172;2022-07-22T16:13:28;31.80;23.70
431;DHT22;202;48.764;9.172;2022-07-22T16:15:58;31.80;23.80
431;DHT22;202;48.764;9.172;2022-07-22T16:18:39;31.80;23.70
431;DHT22;202;48.764;9.172;2022-07-22T16:21:11;31.70;23.50
431;DHT22;202;48.764;9.172;2022-07-22T16:23:47;31.70;24.00
431;DHT22;202;48.764;9.172;2022-07-22T16:26:15;31.60;23.40
431;DHT22;202;48.764;9.172;2022-07-22T16:28:42;31.80;23.50
431;DHT22;202;48.764;9.172;2022-07-22T16:31:13;31.70;24.40
431;DHT22;202;48.764;9.172;2022-07-22T16:33:50;31.80;24.10
431;DHT22;202;48.764;9.172;2022-07-22T16:36:25;31.80;23.80
431;DHT22;202;48.764;9.172;2022-07-22T16:39:10;31.80;23.60
431;DHT22;202;48.764;9.172;2022-07-22T16:41:38;31.90;23.40
431;DHT22;202;48.764;9.172;2022-07-22T16:44:32;32.10;23.20
431;DHT22;202;48.764;9.172;2022-07-22T16:47:04;32.10;22.90
431;DHT22;202;48.764;9.172;2022-07-22T16:49:34;32.10;23.90
431;DHT22;202;48.764;9.172;2022-07-22T16:52:02;32.20;23.60
431;DHT22;202;48.764;9.172;2022-07-22T16:54:31;32.10;23.30
431;DHT22;202;48.764;9.172;2022-07-22T16:57:00;32.10;22.70
431;DHT22;202;48.764;9.172;2022-07-22T16:59:27;32.20;22.60
431;DHT22;202;48.764;9.172;2022-07-22T17:01:55;32.10;23.60
431;DHT22;202;48.764;9.172;2022-07-22T17:04:24;32.00;23.90
431;DHT22;202;48.764;9.172;2022-07-22T17:06:54;31.90;24.00
431;DHT22;202;48.764;9.172;2022-07-22T17:09:23;31.90;23.90
431;DHT22;202;48.764;9.172;2022-07-22T17:11:58;31.90;24.30
431;DHT22;202;48.764;9.172;2022-07-22T17:14:29;31.90;24.10
431;DHT22;202;48.764;9.172;2022-07-22T17:17:17;31.80;24.00
431;DHT22;202;48.764;9.172;2022-07-22T17:19:54;31.70;24.00
431;DHT22;202;48.764;9.172;2022-07-22T17:22:26;31.70;24.30
431;DHT22;202;48.764;9.172;2022-07-22T17:24:57;31.60;24.50
431;DHT22;202;48.764;9.172;2022-07-22T17:27:26;31.60;24.40
431;DHT22;202;48.764;9.172;2022-07-22T17:29:57;31.50;24.60
431;DHT22;202;48.764;9.172;2022-07-22T17:32:27;31.50;24.70
431;DHT22;202;48.764;9.172;2022-07-22T17:34:56;31.40;24.60
431;DHT22;202;48.764;9.172;2022-07-22T17:37:24;31.50;24.90
431;DHT22;202;48.764;9.172;2022-07-22T17:39:51;31.50;25.10
431;DHT22;202;48.764;9.172;2022-07-22T17:42:21;31.50;25.20
431;DHT22;202;48.764;9.172;2022-07-22T17:44:50;31.50;25.20
431;DHT22;202;48.764;9.172;2022-07-22T17:47:23;31.50;25.50
431;DHT22;202;48.764;9.172;2022-07-22T17:49:51;31.50;25.60
431;DHT22;202;48.764;9.172;2022-07-22T17:52:20;31.30;26.40
431;DHT22;202;48.764;9.172;2022-07-22T17:54:47;31.30;26.90
431;DHT22;202;48.764;9.172;2022-07-22T17:57:18;31.30;26.60
431;DHT22;202;48.764;9.172;2022-07-22T17:59:51;31.20;27.00
431;DHT22;202;48.764;9.172;2022-07-22T18:02:21;31.20;27.10
431;DHT22;202;48.764;9.172;2022-07-22T18:04:52;31.10;27.20
431;DHT22;202;48.764;9.172;2022-07-22T18:07:19;31.00;28.20
431;DHT22;202;48.764;9.172;2022-07-22T18:09:48;30.90;27.90
431;DHT22;202;48.764;9.172;2022-07-22T18:12:18;30.80;27.90
431;DHT22;202;48.764;9.172;2022-07-22T18:15:08;30.70;27.60
431;DHT22;202;48.764;9.172;2022-07-22T18:17:41;30.70;28.00
431;DHT22;202;48.764;9.172;2022-07-22T18:20:12;30.70;28.30
431;DHT22;202;48.764;9.172;2022-07-22T18:22:39;30.60;28.20
431;DHT22;202;48.764;9.172;2022-07-22T18:25:07;30.60;28.30
431;DHT22;202;48.764;9.172;2022-07-22T18:27:34;30.50;28.30
431;DHT22;202;48.764;9.172;2022-07-22T20:52:53;28.10;36.70
431;DHT22;202;48.764;9.172;2022-07-22T20:55:25;28.10;35.40
